Time;durP1;ratioP1;P1;durP2;ratioP2;P2;SDS_P1;SDS_P2;PMS_P1;PMS_P2;Temp;Humidity;BMP_temperature;BMP_pressure;BME280_temperature;BME280_humidity;BME280_pressure;Samples;Min_cycle;Max_cycle;Signal;HPM_P1;HPM_P2
2023/12/07 00:01:03;;;;;;;9.30;5.83;;;1.90;99.90;1.70;100648.00;;;;4941199;28;122001;-77
2023/12/07 00:03:28;;;;;;;7.80;4.40;;;2.00;99.90;1.70;100655.00;;;;4948858;28;94988;-75
2023/12/07 00:05:54;;;;;;;9.13;5.00;;;2.00;99.90;1.70;100647.00;;;;4947382;28;110802;-76
2023/12/07 00:08:20;;;;;;;6.77;4.77;;;2.00;99.90;1.70;100649.00;;;;4929227;28;108697;-76
2023/12/07 00:10:45;;;;;;;7.70;4.80;;;2.00;99.90;1.70;100646.00;;;;4949387;28;121976;-77
2023/12/07 00:13:11;;;;;;;5.97;5.10;;;1.90;99.90;1.70;100654.00;;;;4946546;28;120062;-76
2023/12/07 00:15:37;;;;;;;7.13;4.57;;;2.00;99.90;1.70;100654.00;;;;4945055;28;110863;-77
2023/12/07 00:18:03;;;;;;;5.53;4.33;;;2.00;99.90;1.70;100654.00;;;;4946672;28;108496;-77
2023/12/07 00:20:29;;;;;;;7.00;5.50;;;2.00;99.90;1.70;100648.00;;;;4944573;28;93089;-77
2023/12/07 00:22:55;;;;;;;5.67;4.70;;;2.00;99.90;1.70;100655.00;;;;4930061;28;105011;-77
2023/12/07 00:25:21;;;;;;;6.93;5.07;;;2.00;99.90;1.70;100649.00;;;;4952726;28;93168;-77
2023/12/07 00:27:53;;;;;;;6.77;4.60;;;2.00;99.90;1.70;100655.00;;;;4952358;28;93263;-77
2023/12/07 00:30:19;;;;;;;7.07;4.70;;;2.00;99.90;1.70;100664.00;;;;4940055;28;107505;-77
2023/12/07 00:32:45;;;;;;;6.87;4.17;;;1.90;99.90;1.60;100659.00;;;;4946656;28;121267;-77
2023/12/07 00:35:11;;;;;;;6.97;4.97;;;2.00;99.90;1.60;100655.00;;;;4952709;28;92256;-77
2023/12/07 00:37:37;;;;;;;9.00;5.53;;;2.60;99.90;1.60;100655.00;;;;4952393;28;107673;-78
2023/12/07 00:40:03;;;;;;;6.53;5.90;;;1.90;99.90;1.60;100655.00;;;;4947317;28;121949;-77
2023/12/07 00:42:29;;;;;;;7.37;5.17;;;1.90;99.90;1.60;100667.00;;;;4945987;28;93947;-76
2023/12/07 00:44:55;;;;;;;6.13;4.90;;;1.90;99.90;1.60;100658.00;;;;4947129;28;93147;-76
2023/12/07 00:47:21;;;;;;;5.53;4.87;;;1.90;99.90;1.60;100649.00;;;;4933182;28;93258;-77
2023/12/07 00:49:47;;;;;;;5.97;4.73;;;1.90;99.90;1.60;100653.00;;;;4946674;28;122265;-77
2023/12/07 00:52:13;;;;;;;6.23;4.50;;;1.90;99.90;1.60;100653.00;;;;4948185;28;101139;-77
2023/12/07 00:54:39;;;;;;;4.80;3.80;;;1.90;99.90;1.60;100656.00;;;;4949838;28;99576;-76
2023/12/07 00:57:06;;;;;;;5.97;4.43;;;1.90;99.90;1.60;100655.00;;;;4951487;28;94393;-77
2023/12/07 00:59:33;;;;;;;5.30;4.80;;;1.90;99.90;1.60;100651.00;;;;4951836;28;94373;-77
2023/12/07 01:02:04;;;;;;;6.40;4.27;;;1.80;99.90;1.60;100652.00;;;;4940427;28;93482;-77
2023/12/07 01:04:31;;;;;;;7.93;4.53;;;1.90;99.90;1.60;100651.00;;;;4947231;28;92930;-77
2023/12/07 01:06:57;;;;;;;5.13;4.57;;;1.90;99.90;1.60;100665.00;;;;4933515;28;93941;-77
2023/12/07 01:09:23;;;;;;;6.23;4.77;;;1.90;99.90;1.60;100654.00;;;;4932570;28;95972;-77
2023/12/07 01:11:49;;;;;;;9.73;6.20;;;1.80;99.90;1.60;100664.00;;;;4943248;28;95819;-77
2023/12/07 01:14:16;;;;;;;10.53;6.03;;;1.70;99.90;1.60;100669.00;;;;4954122;28;92727;-77
2023/12/07 01:16:42;;;;;;;7.13;5.20;;;1.90;99.90;1.50;100667.00;;;;4951068;28;93146;-78
2023/12/07 01:19:08;;;;;;;6.70;5.13;;;1.80;99.90;1.50;100679.00;;;;4950099;28;92990;-78
2023/12/07 01:21:34;;;;;;;8.23;5.60;;;1.80;99.90;1.50;100684.00;;;;4934342;28;114098;-77
2023/12/07 01:24:00;;;;;;;7.37;4.33;;;1.90;99.90;1.50;100678.00;;;;4948777;28;101974;-76
2023/12/07 01:26:25;;;;;;;8.90;5.40;;;2.10;99.90;1.60;100683.00;;;;4951211;28;93032;-78
2023/12/07 01:28:51;;;;;;;10.10;5.87;;;1.80;99.90;1.60;100680.00;;;;4949451;28;123132;-76
2023/12/07 01:31:17;;;;;;;8.20;5.47;;;1.90;99.90;1.60;100694.00;;;;4945881;28;121827;-77
2023/12/07 01:33:43;;;;;;;6.57;4.90;;;1.80;99.90;1.60;100693.00;;;;4949079;28;108046;-77
2023/12/07 01:36:10;;;;;;;9.27;5.97;;;1.90;99.90;1.60;100700.00;;;;4953750;28;93391;-78
2023/12/07 01:38:36;;;;;;;7.20;5.27;;;1.80;99.90;1.60;100695.00;;;;4948835;28;93740;-77
2023/12/07 01:41:01;;;;;;;7.37;5.53;;;1.90;99.90;1.50;100687.00;;;;4949765;28;121261;-76
2023/12/07 01:43:27;;;;;;;8.13;5.80;;;1.90;99.90;1.50;100698.00;;;;4952796;28;98046;-76
2023/12/07 01:45:56;;;;;;;8.13;5.40;;;1.80;99.90;1.50;100694.00;;;;4949551;28;109136;-75
2023/12/07 01:48:24;;;;;;;9.03;5.47;;;1.90;99.90;1.50;100699.00;;;;4947458;28;93233;-76
2023/12/07 01:50:50;;;;;;;12.07;7.00;;;1.70;99.90;1.50;100710.00;;;;4947960;28;92765;-76
2023/12/07 01:53:17;;;;;;;7.80;4.77;;;1.80;99.90;1.50;100698.00;;;;4952592;28;93061;-76
2023/12/07 01:55:43;;;;;;;7.60;5.17;;;1.80;99.90;1.50;100712.00;;;;4935316;28;93970;-76
2023/12/07 01:58:10;;;;;;;7.57;6.03;;;1.80;99.90;1.50;100692.00;;;;4963811;28;123193;-76
2023/12/07 02:00:36;;;;;;;7.67;6.00;;;1.90;99.90;1.50;100699.00;;;;4946806;28;123324;-76
2023/12/07 02:03:05;;;;;;;12.27;7.27;;;1.80;99.90;1.50;100703.00;;;;4948058;28;108766;-76
2023/12/07 02:05:32;;;;;;;10.43;6.63;;;2.60;99.90;1.50;100700.00;;;;4948457;28;93396;-75
2023/12/07 02:07:58;;;;;;;10.60;6.83;;;1.80;99.90;1.60;100702.00;;;;4946742;28;110500;-76
2023/12/07 02:10:24;;;;;;;9.37;6.00;;;1.80;99.90;1.60;100697.00;;;;4948668;28;114039;-76
2023/12/07 02:12:52;;;;;;;10.40;5.60;;;1.90;99.90;1.60;100713.00;;;;4950166;28;111329;-76
2023/12/07 02:15:19;;;;;;;12.33;6.50;;;1.90;99.90;1.60;100712.00;;;;4953012;28;92702;-77
2023/12/07 02:18:10;;;;;;;8.00;5.97;;;2.80;99.90;1.50;100716.00;;;;4945061;28;114080;-76
2023/12/07 02:21:18;;;;;;;8.23;5.40;;;1.90;99.90;1.60;100716.00;;;;4932029;28;95225;-76
2023/12/07 02:23:46;;;;;;;10.33;6.17;;;1.90;99.90;1.60;100710.00;;;;4946854;28;93335;-76
2023/12/07 02:26:16;;;;;;;11.70;7.13;;;1.90;99.90;1.60;100718.00;;;;4948083;28;93202;-77
2023/12/07 02:28:42;;;;;;;8.17;5.53;;;1.90;99.90;1.70;100715.00;;;;4945484;28;115524;-77
2023/12/07 02:31:08;;;;;;;10.17;6.37;;;2.00;99.90;1.70;100710.00;;;;4948445;28;121896;-76
2023/12/07 02:33:33;;;;;;;9.07;7.07;;;1.90;99.90;1.70;100707.00;;;;4951036;28;93524;-76
2023/12/07 02:35:59;;;;;;;17.73;7.20;;;1.90;99.90;1.70;100706.00;;;;4953018;28;99895;-76
2023/12/07 02:38:26;;;;;;;9.73;6.90;;;2.00;99.90;1.70;100710.00;;;;4944573;28;93339;-76
2023/12/07 02:40:55;;;;;;;11.40;6.30;;;2.20;99.90;1.60;100718.00;;;;4950450;28;93088;-76
2023/12/07 02:43:21;;;;;;;9.30;6.97;;;1.90;99.90;1.70;100725.00;;;;4953123;28;92932;-76
2023/12/07 02:45:48;;;;;;;10.93;6.97;;;1.90;99.90;1.70;100727.00;;;;4933507;28;95581;-75
2023/12/07 02:48:14;;;;;;;9.40;7.20;;;1.90;99.90;1.70;100721.00;;;;4953544;28;99474;-77
2023/12/07 02:50:39;;;;;;;8.57;5.87;;;1.90;99.90;1.70;100717.00;;;;4950965;28;93270;-76
2023/12/07 02:53:05;;;;;;;9.07;6.87;;;2.00;99.90;1.70;100731.00;;;;4948782;28;92959;-76
2023/12/07 02:55:31;;;;;;;9.10;7.17;;;2.00;99.90;1.70;100728.00;;;;4947909;28;108054;-76
2023/12/07 02:57:56;;;;;;;7.97;5.83;;;1.90;99.90;1.70;100733.00;;;;4946976;28;122276;-77
2023/12/07 03:00:22;;;;;;;9.20;6.63;;;2.00;99.90;1.70;100731.00;;;;4946512;28;122630;-76
2023/12/07 03:02:48;;;;;;;10.77;6.37;;;2.00;99.90;1.70;100740.00;;;;4947828;28;92172;-76
2023/12/07 03:05:14;;;;;;;9.23;5.93;;;2.00;99.90;1.70;100745.00;;;;4945580;28;92942;-76
2023/12/07 03:07:39;;;;;;;9.33;7.10;;;2.00;99.90;1.70;100747.00;;;;4947675;28;94469;-76
2023/12/07 03:10:06;;;;;;;9.33;7.20;;;1.90;99.90;1.70;100739.00;;;;4947810;28;124188;-76
2023/12/07 03:12:31;;;;;;;10.50;7.67;;;2.00;99.90;1.70;100743.00;;;;4943549;28;92914;-76
2023/12/07 03:14:57;;;;;;;11.60;7.40;;;1.90;99.90;1.70;100750.00;;;;4931640;28;108230;-76
2023/12/07 03:17:23;;;;;;;10.67;6.13;;;2.00;99.90;1.70;100745.00;;;;4948155;28;93463;-76
2023/12/07 03:19:49;;;;;;;9.23;6.70;;;2.00;99.90;1.70;100746.00;;;;4950372;28;108200;-76
2023/12/07 03:22:14;;;;;;;9.40;7.63;;;2.00;99.90;1.70;100752.00;;;;4948462;28;110306;-76
2023/12/07 03:24:46;;;;;;;11.27;7.60;;;2.00;99.90;1.70;100761.00;;;;4949022;28;93088;-76
2023/12/07 03:27:12;;;;;;;10.73;7.63;;;2.00;99.90;1.70;100762.00;;;;4942441;28;92200;-75
2023/12/07 03:29:37;;;;;;;14.47;8.03;;;1.90;99.90;1.70;100757.00;;;;4955758;28;114458;-75
2023/12/07 03:32:03;;;;;;;14.97;7.70;;;2.00;99.90;1.70;100758.00;;;;4949672;28;108970;-76
2023/12/07 03:34:29;;;;;;;12.93;8.63;;;2.00;99.90;1.80;100758.00;;;;4951070;28;99936;-76
2023/12/07 03:36:55;;;;;;;11.40;7.73;;;2.10;99.90;1.80;100758.00;;;;4933545;28;94916;-75
2023/12/07 03:39:26;;;;;;;9.27;7.67;;;2.00;99.90;1.80;100756.00;;;;4941403;28;120851;-75
2023/12/07 03:41:52;;;;;;;12.77;8.20;;;3.00;99.90;1.80;100756.00;;;;4950454;28;92989;-76
2023/12/07 03:44:18;;;;;;;10.43;7.27;;;2.90;99.90;1.80;100751.00;;;;4948235;28;108542;-76
2023/12/07 03:46:44;;;;;;;11.13;8.10;;;2.10;99.90;1.80;100751.00;;;;4932050;28;95316;-75
2023/12/07 03:49:10;;;;;;;13.43;8.77;;;2.00;99.90;1.80;100754.00;;;;4950448;28;92945;-75
2023/12/07 03:51:36;;;;;;;9.27;7.20;;;2.10;99.90;1.80;100760.00;;;;4946806;28;92359;-75
2023/12/07 03:54:03;;;;;;;11.20;8.57;;;2.10;99.90;1.80;100758.00;;;;4948688;28;93262;-75
2023/12/07 03:56:30;;;;;;;11.73;8.13;;;2.90;99.90;1.90;100769.00;;;;4948589;28;115747;-75
2023/12/07 03:58:56;;;;;;;13.50;8.40;;;2.60;99.90;1.90;100768.00;;;;4948660;28;112600;-75
2023/12/07 04:01:24;;;;;;;11.73;8.73;;;2.20;99.90;1.90;100763.00;;;;4951978;28;92742;-74
2023/12/07 04:03:55;;;;;;;12.03;8.53;;;1.90;99.90;1.90;100765.00;;;;4949411;28;93032;-74
2023/12/07 04:06:22;;;;;;;13.37;7.97;;;2.10;99.90;1.90;100766.00;;;;4951373;28;94071;-75
2023/12/07 04:08:48;;;;;;;12.40;7.87;;;2.10;99.90;1.90;100756.00;;;;4950281;28;93177;-74
2023/12/07 04:11:14;;;;;;;14.23;7.80;;;2.10;99.90;1.90;100765.00;;;;4946312;28;110925;-73
2023/12/07 04:13:41;;;;;;;9.23;8.00;;;3.00;99.90;1.90;100770.00;;;;4945219;28;93139;-73
2023/12/07 04:16:10;;;;;;;18.03;10.23;;;2.20;99.90;1.90;100768.00;;;;4931326;28;94488;-74
2023/12/07 04:18:36;;;;;;;13.40;9.07;;;2.20;99.90;1.90;100771.00;;;;4946340;28;121997;-76
2023/12/07 04:21:03;;;;;;;8.37;7.50;;;2.10;99.90;2.00;100766.00;;;;4942980;28;98297;-74
2023/12/07 04:23:29;;;;;;;11.33;8.20;;;2.20;99.90;2.00;100769.00;;;;4944825;28;95074;-74
2023/12/07 04:25:54;;;;;;;10.80;8.23;;;2.20;99.90;2.00;100768.00;;;;4948850;28;120751;-73
2023/12/07 04:28:20;;;;;;;15.00;10.17;;;2.30;99.90;2.00;100775.00;;;;4931690;28;95393;-77
2023/12/07 04:30:46;;;;;;;14.23;8.63;;;2.30;99.90;2.00;100783.00;;;;4950998;28;109201;-77
2023/12/07 04:33:11;;;;;;;11.37;6.93;;;2.30;99.90;2.00;100779.00;;;;4945623;28;95538;-77
2023/12/07 04:35:37;;;;;;;11.77;9.00;;;2.30;99.90;2.00;100780.00;;;;4944339;28;93163;-77
2023/12/07 04:38:03;;;;;;;14.90;8.87;;;2.30;99.90;2.00;100788.00;;;;4950985;28;122030;-77
2023/12/07 04:40:29;;;;;;;11.87;8.47;;;2.20;99.90;2.00;100789.00;;;;4949350;28;109531;-76
2023/12/07 04:42:54;;;;;;;21.17;12.37;;;2.30;99.90;2.00;100794.00;;;;4930152;28;109428;-77
2023/12/07 04:45:20;;;;;;;13.33;8.40;;;2.20;99.90;2.00;100791.00;;;;4931789;28;123147;-77
2023/12/07 04:47:46;;;;;;;12.37;8.53;;;2.20;99.90;2.00;100787.00;;;;4928630;28;122944;-77
2023/12/07 04:50:12;;;;;;;12.63;8.97;;;2.20;99.90;2.00;100797.00;;;;4943540;28;92898;-77
2023/12/07 04:52:38;;;;;;;12.93;7.77;;;2.30;99.90;2.00;100796.00;;;;4947893;28;97854;-77
2023/12/07 04:55:06;;;;;;;12.87;9.00;;;2.30;99.90;2.00;100798.00;;;;4948645;28;122245;-76
2023/12/07 04:57:35;;;;;;;22.73;12.13;;;2.30;99.90;2.00;100797.00;;;;4946957;28;93332;-76
2023/12/07 05:00:06;;;;;;;12.93;8.63;;;2.30;99.90;2.00;100809.00;;;;4945486;28;93204;-75
2023/12/07 05:02:32;;;;;;;13.43;7.97;;;2.30;99.90;2.10;100815.00;;;;4943706;28;93297;-75
2023/12/07 05:04:57;;;;;;;13.67;9.67;;;2.30;99.90;2.10;100816.00;;;;4949338;28;122682;-74
2023/12/07 05:07:23;;;;;;;14.83;9.37;;;3.00;99.90;2.10;100818.00;;;;4964981;28;122267;-76
2023/12/07 05:09:50;;;;;;;15.97;10.17;;;2.30;99.90;2.10;100813.00;;;;4950301;28;110405;-75
2023/12/07 05:12:17;;;;;;;15.37;9.20;;;2.70;99.90;2.00;100814.00;;;;4941048;28;94091;-74
2023/12/07 05:14:42;;;;;;;18.17;10.43;;;2.30;99.90;2.10;100811.00;;;;4945968;28;93427;-74
2023/12/07 05:17:08;;;;;;;13.03;8.80;;;2.40;99.90;2.00;100814.00;;;;4949724;28;92982;-74
2023/12/07 05:19:37;;;;;;;11.87;8.23;;;2.40;99.90;2.00;100817.00;;;;4944393;28;112952;-75
2023/12/07 05:22:02;;;;;;;36.23;13.30;;;2.30;99.90;2.10;100806.00;;;;4963719;28;109646;-75
2023/12/07 05:24:30;;;;;;;15.90;9.60;;;2.40;99.90;2.10;100813.00;;;;4950581;28;111511;-75
2023/12/07 05:26:55;;;;;;;12.03;8.13;;;2.30;99.90;2.10;100815.00;;;;4944035;28;93763;-74
2023/12/07 05:29:21;;;;;;;15.23;9.77;;;2.40;99.90;2.10;100813.00;;;;4961731;28;110268;-74
2023/12/07 05:31:50;;;;;;;14.73;10.07;;;2.40;99.90;2.10;100822.00;;;;4951858;28;109303;-74
2023/12/07 05:34:17;;;;;;;15.53;9.57;;;2.60;99.90;2.10;100816.00;;;;4945864;28;92968;-74
2023/12/07 05:36:44;;;;;;;36.73;13.43;;;2.50;99.90;2.20;100818.00;;;;4947470;28;94996;-74
2023/12/07 05:39:11;;;;;;;16.20;10.30;;;2.40;99.90;2.20;100822.00;;;;4944446;28;92904;-74
2023/12/07 05:41:37;;;;;;;12.10;9.13;;;2.40;99.90;2.20;100825.00;;;;4946103;28;94197;-74
2023/12/07 05:44:03;;;;;;;15.30;9.27;;;2.50;99.90;2.20;100821.00;;;;4943234;28;93066;-74
2023/12/07 05:46:29;;;;;;;11.40;9.27;;;2.40;99.90;2.20;100825.00;;;;4950270;28;92892;-74
2023/12/07 05:48:55;;;;;;;15.93;11.03;;;2.50;99.90;2.20;100825.00;;;;4950673;28;92957;-74
2023/12/07 05:51:20;;;;;;;14.93;8.90;;;3.30;99.90;2.20;100819.00;;;;4940900;28;109257;-74
2023/12/07 05:53:49;;;;;;;23.47;13.10;;;2.50;99.90;2.20;100821.00;;;;4944105;28;122582;-74
2023/12/07 05:56:20;;;;;;;15.37;10.10;;;2.50;99.90;2.30;100828.00;;;;4943537;28;93294;-74
2023/12/07 05:58:46;;;;;;;14.90;9.93;;;2.50;99.90;2.30;100822.00;;;;4948184;28;93092;-75
2023/12/07 06:01:12;;;;;;;16.33;10.20;;;2.50;99.90;2.30;100826.00;;;;4931904;28;94066;-74
2023/12/07 06:03:38;;;;;;;14.23;9.20;;;2.50;99.90;2.30;100829.00;;;;4960310;28;122439;-75
2023/12/07 06:06:04;;;;;;;17.67;11.63;;;2.50;99.90;2.30;100835.00;;;;4947574;28;117505;-73
2023/12/07 06:08:29;;;;;;;12.97;9.23;;;2.60;99.90;2.30;100836.00;;;;4949153;28;92783;-75
2023/12/07 06:10:56;;;;;;;17.37;9.53;;;2.50;99.90;2.30;100843.00;;;;4945947;28;93014;-75
2023/12/07 06:13:21;;;;;;;11.30;8.83;;;2.60;99.90;2.30;100847.00;;;;4951047;28;93130;-74
2023/12/07 06:15:47;;;;;;;12.80;9.47;;;2.60;99.90;2.30;100846.00;;;;4946735;28;122785;-76
2023/12/07 06:18:13;;;;;;;13.77;7.87;;;3.40;99.90;2.30;100852.00;;;;4945873;28;110226;-76
2023/12/07 06:20:39;;;;;;;14.83;10.40;;;2.50;99.90;2.30;100843.00;;;;4949118;28;108698;-75
2023/12/07 06:23:04;;;;;;;11.77;9.17;;;2.50;99.90;2.30;100854.00;;;;4949372;28;93336;-76
2023/12/07 06:25:30;;;;;;;19.10;10.70;;;3.00;99.90;2.30;100839.00;;;;4947185;28;121692;-75
2023/12/07 06:27:56;;;;;;;13.87;10.37;;;2.50;99.90;2.30;100858.00;;;;4950741;28;106877;-76
2023/12/07 06:30:21;;;;;;;12.17;8.43;;;3.30;99.90;2.30;100856.00;;;;4953760;28;93537;-76
2023/12/07 06:32:47;;;;;;;19.47;10.93;;;2.50;99.90;2.30;100856.00;;;;4950945;28;120578;-76
2023/12/07 06:35:13;;;;;;;15.30;9.67;;;2.40;99.90;2.30;100855.00;;;;4936406;28;94184;-76
2023/12/07 06:37:41;;;;;;;15.57;10.83;;;2.60;99.90;2.20;100847.00;;;;4946659;28;104513;-75
2023/12/07 06:40:09;;;;;;;17.40;10.37;;;2.50;99.90;2.30;100856.00;;;;4949413;28;94639;-75
2023/12/07 06:42:36;;;;;;;14.87;10.63;;;2.50;99.90;2.30;100854.00;;;;4944579;28;107743;-75
2023/12/07 06:45:02;;;;;;;17.33;10.60;;;2.50;99.90;2.20;100867.00;;;;4951239;28;94657;-76
2023/12/07 06:47:28;;;;;;;15.73;10.50;;;2.50;99.90;2.20;100868.00;;;;4946899;28;93084;-76
2023/12/07 06:49:55;;;;;;;14.70;10.50;;;2.50;99.90;2.20;100863.00;;;;4947497;28;101310;-76
2023/12/07 06:52:21;;;;;;;13.83;9.10;;;2.50;99.90;2.30;100868.00;;;;4949619;28;93664;-76
2023/12/07 06:54:47;;;;;;;16.67;11.57;;;2.40;99.90;2.30;100868.00;;;;4949003;28;112557;-76
2023/12/07 06:57:12;;;;;;;14.93;10.37;;;2.50;99.90;2.30;100867.00;;;;4947606;28;108744;-76
2023/12/07 06:59:38;;;;;;;17.80;8.83;;;3.00;99.90;2.30;100875.00;;;;4953541;28;93216;-75
2023/12/07 07:02:04;;;;;;;14.40;10.63;;;2.50;99.90;2.30;100870.00;;;;4933397;28;121726;-76
2023/12/07 07:04:29;;;;;;;13.40;9.37;;;2.50;99.90;2.30;100878.00;;;;4948726;28;121051;-77
2023/12/07 07:06:55;;;;;;;19.27;10.63;;;2.60;99.90;2.30;100879.00;;;;4937426;28;113687;-77
2023/12/07 07:09:21;;;;;;;15.40;10.47;;;2.60;99.90;2.30;100873.00;;;;4936847;28;92879;-76
2023/12/07 07:11:50;;;;;;;14.10;10.13;;;2.50;99.90;2.30;100868.00;;;;4935800;28;121307;-76
2023/12/07 07:14:16;;;;;;;15.93;12.10;;;2.60;99.90;2.30;100877.00;;;;4947830;28;93593;-77
2023/12/07 07:16:42;;;;;;;18.70;11.90;;;2.60;99.90;2.30;100873.00;;;;4951171;28;92747;-75
2023/12/07 07:19:08;;;;;;;14.80;11.30;;;2.50;99.90;2.30;100873.00;;;;4952717;28;93038;-75
2023/12/07 07:21:34;;;;;;;19.70;10.40;;;2.60;99.90;2.30;100877.00;;;;4947052;28;122860;-76
2023/12/07 07:24:00;;;;;;;15.60;10.17;;;2.60;99.90;2.30;100879.00;;;;4944932;28;94505;-76
2023/12/07 07:26:25;;;;;;;15.07;9.67;;;2.60;99.90;2.30;100869.00;;;;4952345;28;92826;-75
2023/12/07 07:28:52;;;;;;;15.90;11.97;;;3.40;99.90;2.30;100876.00;;;;4955054;28;108072;-78
2023/12/07 07:31:18;;;;;;;14.73;10.17;;;2.80;99.90;2.30;100876.00;;;;4945439;28;122340;-76
2023/12/07 07:33:46;;;;;;;16.40;11.10;;;2.60;99.90;2.30;100880.00;;;;4967187;28;94738;-76
2023/12/07 07:36:14;;;;;;;18.00;11.03;;;2.50;99.90;2.30;100873.00;;;;4950189;28;92939;-75
2023/12/07 07:38:41;;;;;;;14.47;10.10;;;2.60;99.90;2.30;100867.00;;;;4952629;28;94166;-75
2023/12/07 07:41:06;;;;;;;22.00;12.67;;;2.60;99.90;2.30;100882.00;;;;4954625;28;105501;-76
2023/12/07 07:43:34;;;;;;;15.07;10.57;;;2.60;99.90;2.40;100886.00;;;;4951420;28;122477;-76
2023/12/07 07:46:00;;;;;;;16.20;10.50;;;2.60;99.90;2.40;100893.00;;;;4949388;28;93062;-76
2023/12/07 07:48:26;;;;;;;22.87;11.97;;;2.60;99.90;2.40;100880.00;;;;4950235;28;92869;-76
2023/12/07 07:50:52;;;;;;;15.83;11.00;;;2.60;99.90;2.40;100885.00;;;;4948342;28;115668;-75
2023/12/07 07:53:18;;;;;;;16.77;11.53;;;2.60;99.90;2.40;100886.00;;;;4950913;28;121417;-77
2023/12/07 07:55:43;;;;;;;14.00;9.97;;;2.80;99.90;2.50;100885.00;;;;4953328;28;92356;-77
2023/12/07 07:58:09;;;;;;;13.83;9.73;;;2.70;99.90;2.50;100878.00;;;;4951359;28;109411;-77
2023/12/07 08:00:35;;;;;;;15.90;11.07;;;2.70;99.90;2.50;100883.00;;;;4949284;28;93801;-75
2023/12/07 08:03:00;;;;;;;17.97;10.77;;;2.70;99.90;2.50;100884.00;;;;4948449;28;122681;-75
2023/12/07 08:05:26;;;;;;;15.83;9.63;;;2.70;99.90;2.60;100879.00;;;;4947126;28;111163;-75
2023/12/07 08:07:52;;;;;;;13.47;8.53;;;2.90;99.90;2.60;100883.00;;;;4953127;28;108930;-75
2023/12/07 08:10:18;;;;;;;10.53;9.10;;;2.90;99.90;2.60;100882.00;;;;4944454;28;123306;-76
2023/12/07 08:12:43;;;;;;;14.17;10.00;;;2.90;99.90;2.60;100881.00;;;;4944683;28;93719;-76
2023/12/07 08:15:10;;;;;;;14.53;10.10;;;2.80;99.90;2.70;100885.00;;;;4946256;28;109895;-76
2023/12/07 08:17:40;;;;;;;16.00;10.33;;;4.50;99.90;2.70;100876.00;;;;4945039;28;93116;-76
2023/12/07 08:20:14;;;;;;;17.53;11.00;;;3.30;99.90;2.70;100880.00;;;;4946593;28;92366;-76
2023/12/07 08:22:43;;;;;;;13.33;8.70;;;3.00;99.90;2.70;100872.00;;;;4935216;28;95478;-76
2023/12/07 08:25:10;;;;;;;13.47;8.57;;;3.00;99.90;2.70;100887.00;;;;4946158;28;93412;-75
2023/12/07 08:27:39;;;;;;;14.40;9.73;;;3.00;99.90;2.80;100892.00;;;;4946246;28;99225;-76
2023/12/07 08:30:06;;;;;;;16.07;9.97;;;3.00;99.90;2.80;100896.00;;;;4950959;28;93393;-76
2023/12/07 08:32:31;;;;;;;19.17;9.27;;;3.00;99.90;2.80;100897.00;;;;4943370;28;94656;-76
2023/12/07 08:34:57;;;;;;;11.63;8.07;;;3.10;99.90;2.80;100892.00;;;;4949819;28;112336;-77
2023/12/07 08:37:23;;;;;;;12.73;8.10;;;3.40;99.90;2.80;100899.00;;;;4946556;28;108637;-75
2023/12/07 08:39:49;;;;;;;13.87;9.80;;;3.00;99.90;2.90;100906.00;;;;4950357;28;122056;-75
2023/12/07 08:42:14;;;;;;;11.63;8.40;;;3.20;99.90;2.90;100905.00;;;;4947806;28;93926;-75
2023/12/07 08:44:41;;;;;;;13.67;10.27;;;3.40;99.90;3.00;100904.00;;;;4948450;28;110107;-75
2023/12/07 08:47:06;;;;;;;13.53;9.57;;;3.20;99.90;3.00;100903.00;;;;4944115;28;93211;-75
2023/12/07 08:49:32;;;;;;;13.50;9.47;;;3.20;99.90;3.00;100909.00;;;;4949699;28;121749;-76
2023/12/07 08:51:58;;;;;;;12.10;8.23;;;3.30;99.90;3.00;100903.00;;;;4944906;28;93869;-76
2023/12/07 08:54:24;;;;;;;20.53;9.87;;;3.20;99.90;3.10;100911.00;;;;4933285;28;104253;-75
2023/12/07 08:56:51;;;;;;;16.43;9.47;;;3.30;99.90;3.10;100913.00;;;;4947244;28;109482;-75
2023/12/07 08:59:17;;;;;;;17.13;8.53;;;3.30;99.90;3.10;100918.00;;;;4946636;28;94418;-75
2023/12/07 09:01:42;;;;;;;14.20;8.70;;;3.90;99.90;3.20;100917.00;;;;4931207;28;94161;-75
2023/12/07 09:04:08;;;;;;;13.57;9.27;;;3.30;99.90;3.20;100918.00;;;;4946499;28;110764;-75
2023/12/07 09:06:36;;;;;;;15.23;9.77;;;4.10;99.90;3.20;100932.00;;;;4946089;28;93230;-75
2023/12/07 09:09:04;;;;;;;13.07;9.10;;;3.40;99.90;3.20;100924.00;;;;4949581;28;92848;-75
2023/12/07 09:11:30;;;;;;;16.40;10.13;;;3.50;99.90;3.20;100929.00;;;;4947543;28;93978;-75
2023/12/07 09:13:56;;;;;;;18.43;10.13;;;3.50;99.90;3.20;100939.00;;;;4948330;28;93038;-74
2023/12/07 09:16:22;;;;;;;11.97;8.63;;;3.50;99.90;3.30;100935.00;;;;4927892;28;94051;-74
2023/12/07 09:18:47;;;;;;;12.57;7.60;;;3.50;99.90;3.30;100917.00;;;;4949412;28;92801;-74
2023/12/07 09:21:13;;;;;;;14.23;9.33;;;3.40;99.90;3.30;100935.00;;;;4946248;28;122712;-74
2023/12/07 09:23:39;;;;;;;12.73;8.97;;;3.50;99.90;3.30;100933.00;;;;4948601;28;110553;-74
2023/12/07 09:26:05;;;;;;;18.97;9.50;;;3.50;99.90;3.30;100936.00;;;;4952220;28;92788;-74
2023/12/07 09:28:33;;;;;;;15.47;8.83;;;3.50;99.90;3.30;100940.00;;;;4949916;28;113347;-73
2023/12/07 09:30:59;;;;;;;12.70;9.33;;;3.50;99.90;3.30;100930.00;;;;4951626;28;93203;-76
2023/12/07 09:33:24;;;;;;;15.27;10.50;;;3.50;99.90;3.30;100934.00;;;;4950438;28;94449;-76
2023/12/07 09:35:50;;;;;;;16.57;8.43;;;4.30;99.90;3.30;100934.00;;;;4953066;28;108601;-76
2023/12/07 09:38:16;;;;;;;10.73;7.93;;;4.00;99.90;3.30;100932.00;;;;4953669;28;121737;-76
2023/12/07 09:40:42;;;;;;;14.63;8.83;;;3.60;99.90;3.30;100936.00;;;;4933947;28;95139;-76
2023/12/07 09:43:08;;;;;;;15.07;9.40;;;3.50;99.90;3.30;100935.00;;;;4952598;28;93010;-76
2023/12/07 09:45:34;;;;;;;13.83;9.60;;;3.80;99.90;3.30;100937.00;;;;4946616;28;108477;-76
2023/12/07 09:48:00;;;;;;;15.23;9.23;;;4.20;99.90;3.30;100929.00;;;;4942592;28;93288;-76
2023/12/07 09:50:27;;;;;;;14.77;8.80;;;4.50;99.90;3.30;100942.00;;;;4952510;28;93095;-76
2023/12/07 09:52:57;;;;;;;12.73;8.57;;;3.50;99.90;3.30;100945.00;;;;4949866;28;93011;-76
2023/12/07 09:55:24;;;;;;;15.80;9.63;;;3.60;99.90;3.30;100930.00;;;;4949815;28;93104;-76
2023/12/07 09:57:56;;;;;;;13.73;9.47;;;3.60;99.90;3.40;100933.00;;;;4952513;28;92108;-77
2023/12/07 10:00:22;;;;;;;20.00;11.33;;;3.60;99.90;3.40;100937.00;;;;4944700;28;94182;-75
2023/12/07 10:02:48;;;;;;;16.13;10.83;;;3.60;99.90;3.40;100932.00;;;;4947564;28;109889;-75
2023/12/07 10:05:16;;;;;;;13.50;9.03;;;3.60;99.90;3.40;100937.00;;;;4952271;28;93834;-75
2023/12/07 10:07:44;;;;;;;13.93;9.40;;;3.30;99.90;3.40;100935.00;;;;4953862;28;93004;-75
2023/12/07 10:10:13;;;;;;;14.13;9.30;;;3.60;99.90;3.40;100938.00;;;;4950154;28;92952;-75
2023/12/07 10:12:55;;;;;;;12.37;8.83;;;3.60;99.90;3.40;100928.00;;;;4951050;28;92868;-77
2023/12/07 10:15:23;;;;;;;12.90;8.70;;;3.70;99.90;3.40;100922.00;;;;4948206;28;93113;-77
2023/12/07 10:17:54;;;;;;;17.60;9.60;;;3.70;99.90;3.40;100920.00;;;;4936753;28;95572;-74
2023/12/07 10:20:25;;;;;;;11.60;8.53;;;3.50;99.90;3.40;100927.00;;;;4950832;28;94529;-77
2023/12/07 10:23:09;;;;;;;23.23;10.90;;;2.10;99.90;3.40;100925.00;;;;4946076;28;92150;-77
2023/12/07 10:25:41;;;;;;;14.43;9.13;;;3.70;99.90;3.40;100927.00;;;;4949792;28;107198;-76
2023/12/07 10:28:12;;;;;;;12.30;9.10;;;3.70;99.90;3.40;100932.00;;;;4947504;28;104885;-76
2023/12/07 10:30:41;;;;;;;14.53;9.17;;;3.60;99.90;3.40;100929.00;;;;4954403;28;94284;-76
2023/12/07 10:33:07;;;;;;;15.07;8.87;;;3.70;99.90;3.40;100930.00;;;;4949111;28;92936;-76
2023/12/07 10:35:33;;;;;;;11.60;6.80;;;3.70;99.90;3.40;100945.00;;;;4949256;28;108235;-73
2023/12/07 10:38:02;;;;;;;17.27;8.87;;;4.00;99.90;3.40;100945.00;;;;4948285;28;115165;-73
2023/12/07 10:40:27;;;;;;;11.20;9.00;;;3.70;99.90;3.40;100937.00;;;;4945774;28;122571;-73
2023/12/07 10:42:58;;;;;;;11.17;7.30;;;3.60;99.90;3.40;100933.00;;;;4953016;28;110370;-74
2023/12/07 10:45:29;;;;;;;12.33;8.33;;;3.00;99.90;3.50;100925.00;;;;4954158;28;93256;-74
2023/12/07 10:48:06;;;;;;;11.33;7.83;;;3.70;99.90;3.50;100930.00;;;;4952617;28;92251;-73
2023/12/07 10:50:49;;;;;;;12.93;8.63;;;3.70;99.90;3.50;100932.00;;;;4952979;28;94110;-73